ADDS METAR Data INFO
IDs: Format: Raw Decoded Include TAF

Data at: 0359 UTC 11 Dec 2017

KBHM 110353Z 00000KT 10SM CLR 03/M02 A3030 RMK AO2 SLP262 T00281017
KBHM 110253Z 22005KT 10SM CLR 06/M03 A3028 RMK AO2 SLP255 T00561028 53002
KBHM 110153Z 20005KT 10SM CLR 04/M03 A3026 RMK AO2 SLP250 T00441028
KBHM 110053Z 22004KT 10SM CLR 04/M03 A3027 RMK AO2 SLP254 T00441028
KBHM 102353Z 21004KT 10SM CLR 04/M03 A3027 RMK AO2 SLP254 T00441028 10094 20044 53000
KBHM 102253Z 24006KT 10SM CLR 07/M03 A3027 RMK AO2 SLP253 T00721033
KBHM 102153Z 24008KT 10SM CLR 08/M04 A3027 RMK AO2 SLP252 T00831039
KBHM 102053Z 22006KT 10SM CLR 09/M04 A3027 RMK AO2 SLP253 T00891044 56021
KBHM 101953Z 23006KT 10SM CLR 08/M05 A3028 RMK AO2 SLP256 T00831050
KBHM 101853Z 26007KT 10SM CLR 08/M04 A3030 RMK AO2 SLP263 T00781044
KBHM 101753Z 23008KT 10SM CLR 07/M04 A3033 RMK AO2 SLP274 T00671039 10067 21039 58011
KBHM 101653Z 24007KT 200V280 10SM CLR 05/M04 A3036 RMK AO2 SLP285 T00501044
KBHM 101553Z 23005KT 10SM CLR 03/M04 A3038 RMK AO2 SLP290 T00331039
KBHM 101453Z 25003KT 10SM CLR 01/M03 A3037 RMK AO2 SLP286 T00111033 53012
KBHM 101353Z 00000KT 7SM CLR M01/M03 A3035 RMK AO2 SLP280 T10111033
KBHM 101253Z 00000KT 7SM CLR M04/M05 A3034 RMK AO2 SLP278 T10391050
KBHM 101153Z 00000KT 8SM CLR M04/M05 A3033 RMK AO2 SLP274 T10391050 11006 21039 53010
KBHM 101053Z 00000KT 8SM CLR M03/M05 A3032 RMK AO2 SLP270 T10331050
KBHM 100953Z 00000KT 10SM CLR M03/M05 A3031 RMK AO2 SLP266 T10331050
KBHM 100853Z 00000KT 10SM CLR M03/M04 A3030 RMK AO2 SLP264 T10281044 53010
KBHM 100753Z 00000KT 10SM CLR M02/M04 A3029 RMK AO2 SLP260 T10221044
KBHM 100653Z 00000KT 10SM CLR M02/M04 A3027 RMK AO2 SLP254 T10171044
KBHM 100553Z 00000KT 10SM CLR M01/M05 A3027 RMK AO2 SLP253 T10061050 10044 21011 400611028 51020
KBHM 100453Z 01004KT 10SM CLR M01/M05 A3026 RMK AO2 SLP249 T10061050
KBHM 100353Z 34013KT 10SM CLR 02/M04 A3023 RMK AO2 SLP241 T00171044
KBHM 100253Z 33011KT 10SM CLR 03/M03 A3021 RMK AO2 SLP232 T00281033 53031
KBHM 100153Z 29004KT 10SM CLR 03/M03 A3016 RMK AO2 SLP217 T00331033
KBHM 100053Z 29006KT 10SM CLR 04/M03 A3014 RMK AO2 SLP210 T00441033
KBHM 092353Z 25006KT 10SM CLR 04/M02 A3011 RMK AO2 SLP200 T00441022 10061 20028 53030
KBHM 092253Z 26009KT 10SM FEW040 05/M02 A3008 RMK AO2 SLP188 T00501022
KBHM 092153Z 24010KT 10SM CLR 06/M03 A3004 RMK AO2 SLP175 T00561028
KBHM 092053Z 24012KT 10SM CLR 06/M02 A3002 RMK AO2 SLP169 T00561022 56010
KBHM 091953Z 25011G19KT 10SM CLR 05/M02 A3003 RMK AO2 SLP170 T00501022
KBHM 091853Z 24010KT 10SM CLR 04/M03 A3003 RMK AO2 SLP171 T00391028
KBHM 091753Z 24015KT 10SM CLR 03/M04 A3005 RMK AO2 SLP180 T00281039 10028 21028 58004
KBHM 091653Z 25012KT 10SM CLR 02/M05 A3007 RMK AO2 SLP186 T00171050